sa Pobla, Spain
Current Conditions -  °F | °C
As of 11:00 AM on Thursday 23 Oct 2014 (Local Time) from LEPA Reporting Station
Few Clouds Few Clouds  
Wind Chill: 72°   Ceiling: Unl
Heat Index: 72°   Visibility: 6mi
Dew Point: 59°   Wind: 5mph
Humidity: 64%   Direction: 240°WSW
Pressure: 30.15"   Gusts: NA
Location:  39.77°N, 3.02°E
Report Text: LEPA 230900Z 24004KT 210V280 9999 FEW027 22/15 Q1021 NOSIG
Loading
Personal Weather Stations






























Interactive Weather Map
Tropical Storm Tracking
New forecast layout! Learn more

10-Day Weather Forecast

Advertisements
Track Severe Weather on mobile